Terminal Aerodrome Forecast
Issued by NWS Tulsa, OK

Home | Current Version | Previous Version | Text Only | Print | Product List | Glossary On
Versions: 1 2 3 4 5 6 7 8 9 10 11 12 13 14 15 16 17 18 19 20
000
FTUS44 KTSA 260500
TAFFSM
TAF
KFSM 260520Z 2606/2706 32010KT P6SM OVC035
     FM260900 27004KT P6SM SKC
     FM261600 27008KT P6SM SKC
     FM270000 30004KT P6SM SKC=

USA.gov is the U.S. government's official web portal to all federal, state and local government web resources and services.